Time;durP1;ratioP1;P1;durP2;ratioP2;P2;SDS_P1;SDS_P2;PMS_P1;PMS_P2;Temp;Humidity;BMP_temperature;BMP_pressure;BME280_temperature;BME280_humidity;BME280_pressure;Samples;Min_cycle;Max_cycle;Signal;HPM_P1;HPM_P2
2023/12/24 00:02:05;;;;;;;5.93;2.58;;;2.00;71.30;;;;;;4891206;28;114313;-82
2023/12/24 00:04:33;;;;;;;5.72;2.40;;;2.10;71.40;;;;;;4907606;28;114727;-83
2023/12/24 00:07:01;;;;;;;4.88;2.58;;;2.10;71.40;;;;;;4907511;28;116473;-84
2023/12/24 00:09:28;;;;;;;4.38;2.38;;;2.10;71.30;;;;;;4922502;28;115780;-83
2023/12/24 00:11:55;;;;;;;4.97;2.63;;;2.10;71.40;;;;;;4909304;28;114512;-84
2023/12/24 00:14:22;;;;;;;4.18;2.05;;;2.10;71.30;;;;;;4908512;28;114341;-83
2023/12/24 00:16:50;;;;;;;5.65;2.08;;;2.10;71.30;;;;;;4906535;28;117933;-83
2023/12/24 00:19:17;;;;;;;4.80;2.10;;;2.10;71.30;;;;;;4886906;28;114968;-84
2023/12/24 00:21:44;;;;;;;3.28;1.77;;;2.10;71.20;;;;;;4907192;28;114535;-83
2023/12/24 00:24:12;;;;;;;3.72;1.63;;;2.10;71.20;;;;;;4892008;28;114568;-83
2023/12/24 00:26:39;;;;;;;3.25;1.63;;;2.00;71.40;;;;;;4906337;28;116912;-83
2023/12/24 00:29:06;;;;;;;3.78;2.08;;;2.10;71.40;;;;;;4907711;28;114919;-82
2023/12/24 00:31:34;;;;;;;4.13;1.92;;;2.10;71.40;;;;;;4910161;28;114232;-82
2023/12/24 00:34:01;;;;;;;3.83;1.90;;;2.10;71.40;;;;;;4908735;28;114259;-82
2023/12/24 00:36:29;;;;;;;3.85;2.00;;;2.10;71.40;;;;;;4907017;28;116333;-82
2023/12/24 00:38:57;;;;;;;4.20;1.42;;;2.10;71.40;;;;;;4892690;28;114294;-83
2023/12/24 00:41:25;;;;;;;3.13;2.03;;;2.10;71.40;;;;;;4906317;28;114686;-82
2023/12/24 00:43:53;;;;;;;2.83;1.30;;;2.10;71.40;;;;;;4890756;28;114518;-82
2023/12/24 00:46:21;;;;;;;4.50;1.60;;;2.10;71.40;;;;;;4907358;28;115420;-82
2023/12/24 00:48:48;;;;;;;3.58;1.80;;;2.10;71.30;;;;;;4909285;28;115020;-82
2023/12/24 00:51:16;;;;;;;3.70;1.80;;;2.20;71.30;;;;;;4887846;28;114259;-82
2023/12/24 00:53:45;;;;;;;3.53;1.90;;;2.20;71.30;;;;;;4895983;28;114351;-83
2023/12/24 00:56:13;;;;;;;2.17;1.17;;;2.20;71.30;;;;;;4890177;28;115490;-82
2023/12/24 00:58:40;;;;;;;3.08;1.50;;;2.20;71.30;;;;;;4890027;28;115839;-81
2023/12/24 01:01:08;;;;;;;3.10;1.10;;;2.20;71.20;;;;;;4922871;28;114788;-81
2023/12/24 01:03:38;;;;;;;2.45;1.10;;;2.20;71.10;;;;;;4908295;28;114360;-81
2023/12/24 01:06:06;;;;;;;2.92;1.17;;;2.20;71.00;;;;;;4907362;28;116401;-81
2023/12/24 01:08:33;;;;;;;1.98;1.08;;;2.20;71.00;;;;;;4905741;28;116273;-82
2023/12/24 01:11:01;;;;;;;3.22;1.33;;;2.20;71.10;;;;;;4907658;28;114399;-82
2023/12/24 01:13:28;;;;;;;2.75;1.35;;;2.20;71.10;;;;;;4908440;28;114195;-82
2023/12/24 01:15:55;;;;;;;2.28;1.20;;;2.20;71.20;;;;;;4906069;28;115222;-82
2023/12/24 01:18:23;;;;;;;2.60;1.40;;;2.30;71.00;;;;;;4907284;28;114574;-82
2023/12/24 01:20:51;;;;;;;2.60;1.40;;;2.30;70.90;;;;;;4913651;28;114119;-82
2023/12/24 01:23:18;;;;;;;3.53;1.40;;;2.30;70.90;;;;;;4927512;28;114389;-83
2023/12/24 01:25:46;;;;;;;2.15;1.25;;;2.30;70.80;;;;;;4893728;28;115126;-83
2023/12/24 01:28:14;;;;;;;2.28;1.20;;;2.20;70.90;;;;;;4904034;28;114844;-83
2023/12/24 01:30:42;;;;;;;2.78;1.27;;;2.20;70.80;;;;;;4887237;28;114444;-83
2023/12/24 01:33:09;;;;;;;3.42;2.03;;;2.20;70.80;;;;;;4916440;28;114634;-82
2023/12/24 01:35:37;;;;;;;3.40;2.10;;;2.20;70.80;;;;;;4905019;28;117154;-82
2023/12/24 01:38:05;;;;;;;3.60;2.20;;;2.20;70.80;;;;;;4913903;28;114681;-82
2023/12/24 01:40:32;;;;;;;4.03;1.83;;;2.20;70.80;;;;;;4907767;28;114359;-82
2023/12/24 01:43:01;;;;;;;3.72;1.80;;;2.20;70.80;;;;;;4890529;28;114799;-81
2023/12/24 01:45:28;;;;;;;3.40;1.95;;;2.20;70.80;;;;;;4904572;28;116727;-82
2023/12/24 01:47:56;;;;;;;2.80;1.90;;;2.10;70.90;;;;;;4887814;28;115290;-82
2023/12/24 01:50:24;;;;;;;3.45;2.05;;;2.10;71.10;;;;;;4905581;28;114712;-82
2023/12/24 01:52:51;;;;;;;4.35;2.40;;;2.10;71.30;;;;;;4906867;28;114563;-82
2023/12/24 01:55:20;;;;;;;4.65;2.00;;;2.10;71.30;;;;;;4905259;28;114407;-83
2023/12/24 01:57:47;;;;;;;4.32;1.92;;;2.10;71.20;;;;;;4890362;28;114674;-83
2023/12/24 02:00:16;;;;;;;4.10;2.38;;;2.10;71.30;;;;;;4890130;28;114630;-83
2023/12/24 02:02:44;;;;;;;3.95;2.60;;;2.00;71.30;;;;;;4908225;28;114262;-83
2023/12/24 02:05:11;;;;;;;3.65;2.13;;;1.90;71.40;;;;;;4905120;28;115073;-83
2023/12/24 02:07:39;;;;;;;3.58;2.40;;;1.90;71.60;;;;;;4889605;28;114721;-85
2023/12/24 02:10:07;;;;;;;4.70;3.03;;;1.90;71.70;;;;;;4893620;28;114697;-82
2023/12/24 02:12:35;;;;;;;4.95;2.33;;;1.90;71.80;;;;;;4902657;28;114150;-82
2023/12/24 02:15:03;;;;;;;7.35;3.40;;;1.90;71.80;;;;;;4906160;28;116555;-82
2023/12/24 02:17:32;;;;;;;6.80;3.85;;;1.90;71.70;;;;;;4917694;28;117258;-81
2023/12/24 02:20:00;;;;;;;8.30;4.15;;;2.00;71.70;;;;;;4906050;28;116611;-82
2023/12/24 02:22:27;;;;;;;6.32;3.33;;;1.90;71.60;;;;;;4907266;28;114187;-82
2023/12/24 02:24:55;;;;;;;6.55;3.97;;;1.90;71.80;;;;;;4904620;28;116681;-81
2023/12/24 02:27:54;;;;;;;7.43;3.92;;;1.90;71.80;;;;;;4905084;28;114586;-82
2023/12/24 02:30:29;;;;;;;9.20;4.75;;;2.00;72.00;;;;;;4905815;28;114618;-83
2023/12/24 02:32:57;;;;;;;7.82;4.82;;;1.90;71.90;;;;;;4890157;28;114479;-82
2023/12/24 02:35:33;;;;;;;9.25;5.55;;;2.00;71.60;;;;;;4888937;28;115384;-83
2023/12/24 02:38:00;;;;;;;8.75;4.57;;;2.00;71.60;;;;;;4904989;28;114614;-82
2023/12/24 02:40:28;;;;;;;9.02;5.78;;;2.00;71.60;;;;;;4890611;28;114293;-82
2023/12/24 02:42:55;;;;;;;8.65;5.20;;;2.00;71.70;;;;;;4908659;28;114489;-82
2023/12/24 02:45:22;;;;;;;7.10;4.50;;;2.00;71.80;;;;;;4916182;28;115292;-81
2023/12/24 02:47:50;;;;;;;10.07;5.35;;;1.90;71.60;;;;;;4914432;28;115510;-81
2023/12/24 02:50:19;;;;;;;11.13;5.50;;;1.90;71.70;;;;;;4909796;28;116189;-82
2023/12/24 02:52:47;;;;;;;9.02;4.80;;;2.00;71.70;;;;;;4893709;28;114443;-83
2023/12/24 02:55:16;;;;;;;8.90;5.05;;;2.00;71.70;;;;;;4877106;28;116210;-81
2023/12/24 02:57:43;;;;;;;8.63;5.28;;;2.00;71.70;;;;;;4908557;28;116003;-82
2023/12/24 03:00:11;;;;;;;9.35;5.47;;;2.10;71.60;;;;;;4892431;28;114816;-82
2023/12/24 03:02:42;;;;;;;8.77;5.28;;;2.10;71.50;;;;;;4894564;28;114681;-82
2023/12/24 03:05:09;;;;;;;7.47;4.90;;;2.10;71.40;;;;;;4909921;28;115047;-82
2023/12/24 03:07:37;;;;;;;5.72;3.30;;;2.10;71.40;;;;;;4906924;28;115223;-82
2023/12/24 03:10:05;;;;;;;5.35;3.35;;;2.10;71.30;;;;;;4918416;28;114295;-83
2023/12/24 03:12:32;;;;;;;7.00;4.00;;;2.10;71.40;;;;;;4909115;28;114357;-83
2023/12/24 03:14:59;;;;;;;6.22;3.85;;;2.10;71.60;;;;;;4906831;28;118922;-83
2023/12/24 03:17:28;;;;;;;6.63;4.43;;;2.10;71.60;;;;;;4907246;28;114674;-82
2023/12/24 03:19:56;;;;;;;6.88;3.60;;;2.10;71.50;;;;;;4917382;28;114673;-83
2023/12/24 03:22:24;;;;;;;6.53;3.33;;;2.10;71.40;;;;;;4910134;28;114203;-83
2023/12/24 03:24:51;;;;;;;8.15;4.07;;;2.10;71.30;;;;;;4907789;28;115640;-83
2023/12/24 03:27:18;;;;;;;7.43;3.70;;;2.00;71.50;;;;;;4908492;28;114595;-83
2023/12/24 03:29:46;;;;;;;6.57;4.15;;;1.90;71.60;;;;;;4891474;28;114472;-83
2023/12/24 03:32:15;;;;;;;7.15;4.57;;;2.00;71.70;;;;;;4908057;28;115076;-83
2023/12/24 03:34:42;;;;;;;7.75;4.05;;;2.00;71.60;;;;;;4908020;28;115712;-82
2023/12/24 03:37:09;;;;;;;7.60;4.22;;;2.00;71.80;;;;;;4907064;28;115652;-83
2023/12/24 03:39:37;;;;;;;5.97;3.50;;;2.00;71.80;;;;;;4907863;28;114589;-83
2023/12/24 03:42:05;;;;;;;6.43;3.85;;;2.10;71.70;;;;;;4909260;28;114452;-83
2023/12/24 03:44:32;;;;;;;6.22;3.30;;;2.10;71.50;;;;;;4891430;28;115018;-83
2023/12/24 03:46:59;;;;;;;7.18;3.55;;;2.10;71.40;;;;;;4906653;28;114767;-83
2023/12/24 03:49:26;;;;;;;6.95;3.60;;;2.10;71.40;;;;;;4908086;28;115636;-84
2023/12/24 03:51:54;;;;;;;7.63;4.30;;;2.10;71.40;;;;;;4892446;28;114457;-83
2023/12/24 03:54:21;;;;;;;6.85;3.97;;;2.20;71.30;;;;;;4909993;28;115646;-82
2023/12/24 03:56:49;;;;;;;8.10;4.68;;;2.10;71.30;;;;;;4906717;28;116728;-83
2023/12/24 03:59:20;;;;;;;7.45;4.80;;;2.10;71.30;;;;;;4907952;28;114450;-83
2023/12/24 04:01:48;;;;;;;9.02;5.07;;;2.10;71.30;;;;;;4892219;28;114491;-82
2023/12/24 04:04:16;;;;;;;7.57;5.13;;;2.10;71.40;;;;;;4906114;28;116749;-83
2023/12/24 04:06:46;;;;;;;8.77;4.80;;;2.20;71.40;;;;;;4908191;28;114699;-82
2023/12/24 04:09:13;;;;;;;9.60;5.28;;;2.20;71.40;;;;;;4908601;28;114745;-82
2023/12/24 04:11:40;;;;;;;8.05;4.40;;;2.20;71.40;;;;;;4907849;28;114719;-82
2023/12/24 04:14:08;;;;;;;9.15;5.65;;;2.20;71.40;;;;;;4890621;28;115182;-82
2023/12/24 04:16:35;;;;;;;8.90;4.68;;;2.20;71.30;;;;;;4906385;28;115201;-82
2023/12/24 04:19:03;;;;;;;7.30;4.50;;;2.20;71.30;;;;;;4906875;28;114500;-82
2023/12/24 04:21:33;;;;;;;9.05;5.75;;;2.20;71.40;;;;;;4906466;28;114499;-82
2023/12/24 04:24:00;;;;;;;8.88;5.70;;;2.20;71.40;;;;;;4890643;28;115117;-82
2023/12/24 04:26:27;;;;;;;9.98;5.63;;;2.20;71.40;;;;;;4906111;28;114756;-82
2023/12/24 04:28:55;;;;;;;9.82;5.38;;;2.20;71.30;;;;;;4889748;28;114873;-82
2023/12/24 04:31:22;;;;;;;10.10;5.50;;;2.20;71.30;;;;;;4891871;28;115007;-82
2023/12/24 04:33:51;;;;;;;10.45;6.15;;;2.20;71.20;;;;;;4906942;28;115589;-81
2023/12/24 04:36:19;;;;;;;8.93;5.97;;;2.20;71.20;;;;;;4906612;28;114780;-82
2023/12/24 04:38:47;;;;;;;12.88;6.07;;;2.30;71.20;;;;;;4906372;28;114466;-82
2023/12/24 04:41:19;;;;;;;11.05;5.78;;;2.20;71.20;;;;;;4908665;28;114349;-82
2023/12/24 04:43:47;;;;;;;8.30;4.82;;;2.20;71.10;;;;;;4905594;28;115597;-80
2023/12/24 04:46:14;;;;;;;9.73;5.15;;;2.20;71.10;;;;;;4921806;28;116540;-80
2023/12/24 04:48:42;;;;;;;7.78;4.65;;;2.20;71.10;;;;;;4907097;28;114586;-80
2023/12/24 04:51:10;;;;;;;9.63;4.70;;;2.20;71.10;;;;;;4908640;28;114436;-80
2023/12/24 04:53:39;;;;;;;7.00;4.40;;;2.20;71.00;;;;;;4892242;28;115006;-80
2023/12/24 04:56:06;;;;;;;8.32;4.20;;;2.20;71.10;;;;;;4906642;28;116192;-80
2023/12/24 04:58:33;;;;;;;7.28;3.95;;;2.20;71.10;;;;;;4922757;28;114401;-80
2023/12/24 05:01:02;;;;;;;8.35;4.45;;;2.20;71.20;;;;;;4907069;28;114687;-82
2023/12/24 05:03:31;;;;;;;8.77;4.68;;;2.20;71.10;;;;;;4904588;28;115690;-82
2023/12/24 05:06:01;;;;;;;9.40;5.35;;;2.20;71.00;;;;;;4906801;28;114794;-82
2023/12/24 05:08:29;;;;;;;9.55;5.28;;;2.20;71.10;;;;;;4907935;28;114290;-82
2023/12/24 05:10:57;;;;;;;8.65;4.80;;;2.30;71.00;;;;;;4890600;28;114844;-82
2023/12/24 05:13:24;;;;;;;9.77;5.30;;;2.20;70.90;;;;;;4907536;28;115073;-82
2023/12/24 05:15:51;;;;;;;7.18;4.65;;;2.20;71.00;;;;;;4906658;28;114772;-82
2023/12/24 05:18:19;;;;;;;9.10;5.03;;;2.20;71.10;;;;;;4906453;28;114661;-82
2023/12/24 05:20:46;;;;;;;8.57;5.00;;;2.10;71.00;;;;;;4890965;28;114366;-81
2023/12/24 05:23:14;;;;;;;10.50;5.25;;;2.10;71.10;;;;;;4905999;28;115027;-81
2023/12/24 05:25:41;;;;;;;10.05;5.40;;;2.10;71.30;;;;;;4905563;28;114696;-81
2023/12/24 05:28:09;;;;;;;9.60;5.43;;;2.10;71.30;;;;;;4905970;28;114555;-80
2023/12/24 05:30:38;;;;;;;9.90;5.50;;;2.10;71.30;;;;;;4890793;28;114310;-81
2023/12/24 05:33:05;;;;;;;10.60;5.63;;;2.10;71.30;;;;;;4909553;28;115085;-81
2023/12/24 05:35:33;;;;;;;12.40;6.68;;;2.10;71.40;;;;;;4913368;28;114541;-81
2023/12/24 05:38:00;;;;;;;12.18;6.28;;;2.10;71.40;;;;;;4911542;28;114338;-82
2023/12/24 05:40:27;;;;;;;12.40;6.45;;;2.10;71.40;;;;;;4907468;28;114401;-81
2023/12/24 05:42:55;;;;;;;12.02;7.55;;;2.10;71.40;;;;;;4904674;28;115680;-81
2023/12/24 05:45:22;;;;;;;11.63;6.35;;;2.10;71.40;;;;;;4906319;28;117996;-82
2023/12/24 05:47:49;;;;;;;23.08;11.45;;;2.20;71.40;;;;;;4890809;28;114310;-81
2023/12/24 05:50:17;;;;;;;31.77;14.93;;;2.20;71.30;;;;;;4907528;28;114357;-82
2023/12/24 05:52:44;;;;;;;26.30;13.32;;;2.20;71.20;;;;;;4873658;28;115145;-81
2023/12/24 05:55:12;;;;;;;23.65;12.18;;;2.20;71.20;;;;;;4905705;28;114662;-80
2023/12/24 05:57:39;;;;;;;27.20;13.05;;;2.20;71.20;;;;;;4907677;28;114261;-81
2023/12/24 06:00:07;;;;;;;25.10;12.80;;;2.10;71.40;;;;;;4906413;28;114471;-82
2023/12/24 06:02:44;;;;;;;21.48;10.38;;;2.10;71.60;;;;;;4906673;28;115583;-82
2023/12/24 06:05:12;;;;;;;19.70;10.65;;;2.10;71.70;;;;;;4889542;28;116268;-82
2023/12/24 06:07:39;;;;;;;17.80;10.25;;;2.10;71.60;;;;;;4874145;28;114296;-82
2023/12/24 06:10:07;;;;;;;18.00;10.85;;;2.10;71.50;;;;;;4906850;28;114623;-82
2023/12/24 06:12:36;;;;;;;22.83;12.07;;;2.10;71.50;;;;;;4906711;28;115406;-82
2023/12/24 06:15:04;;;;;;;26.60;14.57;;;2.00;71.70;;;;;;4906905;28;114539;-81
2023/12/24 06:17:35;;;;;;;32.42;16.77;;;2.00;71.80;;;;;;4909226;28;114352;-82
2023/12/24 06:20:04;;;;;;;28.15;13.90;;;2.00;71.90;;;;;;4909781;28;114414;-82
2023/12/24 06:22:31;;;;;;;30.90;15.90;;;1.90;71.90;;;;;;4909851;28;115644;-83
2023/12/24 06:24:59;;;;;;;24.90;13.38;;;1.90;71.90;;;;;;4909872;28;115069;-81
2023/12/24 06:27:27;;;;;;;34.40;15.10;;;1.90;71.80;;;;;;4910573;28;114283;-82
2023/12/24 06:29:54;;;;;;;33.15;17.52;;;1.90;71.70;;;;;;4910556;28;114973;-82
2023/12/24 06:32:22;;;;;;;23.70;12.32;;;1.90;71.80;;;;;;4908380;28;115057;-81
2023/12/24 06:34:49;;;;;;;32.88;15.75;;;1.90;71.80;;;;;;4909557;28;114575;-82
2023/12/24 06:37:16;;;;;;;18.25;9.98;;;1.90;71.90;;;;;;4910305;28;114549;-82
2023/12/24 06:39:43;;;;;;;30.27;15.35;;;1.90;71.90;;;;;;4909649;28;116718;-81
2023/12/24 06:42:11;;;;;;;62.45;26.33;;;1.90;71.90;;;;;;4908582;28;116402;-81
2023/12/24 06:44:41;;;;;;;43.67;20.40;;;1.90;71.90;;;;;;4908827;28;114562;-80
2023/12/24 06:47:08;;;;;;;59.80;25.67;;;2.00;71.90;;;;;;4915718;28;114635;-81
2023/12/24 06:49:36;;;;;;;65.10;28.77;;;1.90;71.80;;;;;;4918246;28;114261;-81
2023/12/24 06:52:05;;;;;;;68.75;30.73;;;1.80;71.90;;;;;;4909816;28;115258;-81
2023/12/24 06:54:32;;;;;;;36.55;19.17;;;1.80;72.10;;;;;;4907800;28;114653;-81
2023/12/24 06:57:00;;;;;;;27.00;16.00;;;1.80;72.20;;;;;;4910161;28;114200;-80
2023/12/24 06:59:27;;;;;;;29.83;17.30;;;1.90;72.10;;;;;;4909189;28;114522;-81
2023/12/24 07:01:54;;;;;;;24.58;13.52;;;1.80;72.10;;;;;;4908484;28;116013;-81
2023/12/24 07:04:22;;;;;;;29.05;15.85;;;1.90;72.20;;;;;;4908724;28;115301;-81
2023/12/24 07:06:54;;;;;;;26.92;15.15;;;1.90;72.10;;;;;;4923075;28;114657;-81
2023/12/24 07:09:21;;;;;;;24.42;13.20;;;1.90;72.10;;;;;;4907345;28;115361;-82
2023/12/24 07:11:51;;;;;;;27.02;14.95;;;1.90;72.10;;;;;;4908932;28;115015;-82
2023/12/24 07:14:19;;;;;;;27.08;14.13;;;1.90;71.90;;;;;;4911717;28;115076;-81
2023/12/24 07:16:49;;;;;;;24.48;13.65;;;1.80;71.90;;;;;;4912686;28;114305;-81
2023/12/24 07:19:17;;;;;;;23.13;12.45;;;1.80;72.10;;;;;;4908781;28;114611;-84
2023/12/24 07:21:45;;;;;;;25.73;14.63;;;1.80;72.00;;;;;;4907179;28;116419;-82
2023/12/24 07:24:12;;;;;;;29.10;17.35;;;1.90;72.20;;;;;;4908598;28;118030;-82
2023/12/24 07:26:39;;;;;;;26.98;14.38;;;1.90;72.30;;;;;;4908986;28;114942;-83
2023/12/24 07:29:07;;;;;;;24.55;14.00;;;2.00;72.20;;;;;;4940944;28;114630;-82
2023/12/24 07:31:35;;;;;;;23.88;13.88;;;2.00;72.20;;;;;;4908344;28;116924;-84
2023/12/24 07:34:05;;;;;;;26.75;14.43;;;2.10;72.20;;;;;;4909824;28;114689;-82
2023/12/24 07:36:33;;;;;;;22.70;13.55;;;2.10;72.10;;;;;;4908490;28;114286;-82
2023/12/24 07:39:01;;;;;;;25.45;14.25;;;2.10;72.10;;;;;;4907693;28;114895;-81
2023/12/24 07:41:30;;;;;;;24.83;13.38;;;2.20;72.10;;;;;;4906542;28;115044;-83
2023/12/24 07:43:58;;;;;;;26.27;13.80;;;2.20;72.10;;;;;;4891552;28;118911;-82
2023/12/24 07:46:26;;;;;;;24.42;15.13;;;2.30;72.10;;;;;;4940817;28;114572;-81
2023/12/24 07:48:53;;;;;;;24.50;14.75;;;2.30;72.00;;;;;;4892650;28;114421;-82
2023/12/24 07:51:21;;;;;;;27.63;15.77;;;2.30;71.90;;;;;;4908138;28;115509;-82
2023/12/24 07:53:49;;;;;;;24.48;13.73;;;2.30;71.80;;;;;;4908791;28;114652;-81
2023/12/24 07:56:17;;;;;;;21.00;13.38;;;2.20;71.50;;;;;;4907445;28;114627;-82
2023/12/24 07:58:44;;;;;;;25.92;14.48;;;2.10;71.60;;;;;;4913148;28;114568;-81
2023/12/24 08:01:11;;;;;;;24.20;14.18;;;2.10;72.00;;;;;;4907449;28;115339;-82
2023/12/24 08:03:40;;;;;;;22.58;11.90;;;2.10;72.20;;;;;;4907250;28;117197;-82
2023/12/24 08:06:08;;;;;;;28.73;15.23;;;2.20;72.20;;;;;;4908553;28;114341;-83
2023/12/24 08:08:36;;;;;;;23.85;14.00;;;2.20;72.20;;;;;;4916434;28;116733;-82
2023/12/24 08:11:03;;;;;;;28.17;15.75;;;2.30;72.20;;;;;;4900649;28;115042;-81
2023/12/24 08:13:43;;;;;;;26.23;14.13;;;2.30;71.90;;;;;;4920984;28;115671;-83
2023/12/24 08:16:10;;;;;;;26.42;14.80;;;2.20;72.00;;;;;;4914949;28;114448;-81
2023/12/24 08:18:38;;;;;;;30.67;17.30;;;2.20;72.20;;;;;;4907599;28;114401;-84
2023/12/24 08:21:10;;;;;;;27.55;15.65;;;2.30;72.30;;;;;;4908944;28;115086;-80
2023/12/24 08:23:40;;;;;;;26.75;13.85;;;2.40;72.30;;;;;;4936899;28;114816;-82
2023/12/24 08:26:08;;;;;;;20.52;12.98;;;2.50;72.40;;;;;;4908679;28;114354;-82
2023/12/24 08:28:36;;;;;;;29.77;13.60;;;2.60;72.50;;;;;;4912258;28;114849;-81
2023/12/24 08:31:04;;;;;;;47.72;20.35;;;2.70;72.70;;;;;;4915918;28;117018;-83
2023/12/24 08:33:31;;;;;;;38.25;17.75;;;2.70;72.80;;;;;;4906060;28;115002;-82
2023/12/24 08:35:59;;;;;;;65.22;23.95;;;2.90;72.80;;;;;;4890887;28;114848;-85
2023/12/24 08:38:26;;;;;;;46.10;17.58;;;3.00;72.80;;;;;;4907398;28;114205;-82
2023/12/24 08:40:54;;;;;;;51.90;19.17;;;3.10;72.80;;;;;;4909500;28;114663;-82
2023/12/24 08:43:21;;;;;;;44.90;15.48;;;3.10;72.90;;;;;;4908848;28;114650;-81
2023/12/24 08:45:48;;;;;;;30.98;11.65;;;3.20;73.00;;;;;;4908356;28;114379;-83
2023/12/24 08:48:16;;;;;;;27.33;11.80;;;3.30;73.10;;;;;;4914581;28;114565;-83
2023/12/24 08:50:43;;;;;;;14.85;5.95;;;3.40;73.10;;;;;;4922641;28;115073;-81
2023/12/24 08:53:11;;;;;;;12.77;5.65;;;3.40;73.10;;;;;;4907157;28;114816;-83
2023/12/24 08:55:38;;;;;;;13.52;4.90;;;3.50;73.40;;;;;;4937262;28;114649;-82
2023/12/24 08:58:06;;;;;;;14.35;6.00;;;3.70;73.60;;;;;;4908895;28;114265;-83
2023/12/24 09:00:33;;;;;;;9.90;4.60;;;3.70;73.70;;;;;;4914798;28;116284;-82
2023/12/24 09:03:00;;;;;;;6.45;3.72;;;3.80;73.80;;;;;;4890748;28;114639;-82
2023/12/24 09:05:28;;;;;;;5.07;2.70;;;4.00;73.70;;;;;;4939876;28;114334;-83
2023/12/24 09:08:05;;;;;;;5.15;2.55;;;4.00;73.60;;;;;;4888535;28;114461;-83
2023/12/24 09:10:32;;;;;;;5.68;2.90;;;4.10;73.70;;;;;;4897209;28;115603;-83
2023/12/24 09:13:00;;;;;;;5.85;2.70;;;4.20;73.70;;;;;;4922138;28;115363;-82
2023/12/24 09:15:28;;;;;;;6.10;2.83;;;4.20;73.80;;;;;;4908568;28;114511;-83
2023/12/24 09:17:55;;;;;;;5.50;2.60;;;4.20;73.70;;;;;;4908155;28;114158;-83
2023/12/24 09:20:25;;;;;;;5.70;2.83;;;4.30;73.60;;;;;;4907458;28;114943;-83
2023/12/24 09:22:52;;;;;;;3.85;2.00;;;4.40;73.90;;;;;;4905964;28;118024;-83
2023/12/24 09:25:21;;;;;;;4.35;1.77;;;4.40;73.70;;;;;;4907531;28;114789;-83
2023/12/24 09:27:48;;;;;;;4.53;2.22;;;4.40;73.70;;;;;;4907503;28;114531;-83
2023/12/24 09:30:16;;;;;;;3.88;2.15;;;4.40;73.70;;;;;;4905545;28;117001;-83
2023/12/24 09:32:43;;;;;;;4.32;2.20;;;4.50;73.90;;;;;;4905559;28;114947;-83
2023/12/24 09:35:11;;;;;;;3.65;1.80;;;4.50;73.90;;;;;;4938252;28;114429;-84
2023/12/24 09:37:38;;;;;;;4.75;2.00;;;4.60;73.80;;;;;;4905313;28;114570;-83
2023/12/24 09:40:41;;;;;;;5.40;1.95;;;4.60;73.80;;;;;;4905770;28;114605;-84
2023/12/24 09:43:12;;;;;;;4.10;2.47;;;4.60;73.70;;;;;;4905760;28;114948;-83
2023/12/24 09:45:40;;;;;;;9.02;4.60;;;4.70;73.60;;;;;;4912414;28;114536;-84
2023/12/24 09:48:10;;;;;;;6.95;3.60;;;4.60;73.60;;;;;;4925780;28;115405;-85
2023/12/24 09:50:42;;;;;;;5.82;2.97;;;4.70;73.60;;;;;;4924711;28;115789;-82
2023/12/24 09:53:24;;;;;;;6.65;3.47;;;4.70;73.80;;;;;;4913451;28;115037;-84
2023/12/24 09:55:51;;;;;;;4.80;2.50;;;4.70;73.60;;;;;;4928351;28;114717;-84
2023/12/24 09:58:21;;;;;;;4.82;2.58;;;4.80;73.60;;;;;;4918830;28;114929;-85
2023/12/24 10:00:51;;;;;;;6.20;2.80;;;4.80;73.60;;;;;;4901748;28;117553;-85
2023/12/24 10:03:22;;;;;;;5.22;2.60;;;4.80;73.60;;;;;;4912836;28;114574;-83
2023/12/24 10:06:03;;;;;;;9.85;3.22;;;4.80;73.70;;;;;;4926150;28;114711;-82
2023/12/24 10:08:31;;;;;;;6.28;2.47;;;4.80;73.70;;;;;;4937219;28;114543;-82
2023/12/24 10:11:15;;;;;;;6.10;3.17;;;4.80;73.60;;;;;;4918699;28;115766;-83
2023/12/24 10:13:46;;;;;;;4.85;2.30;;;4.90;73.70;;;;;;4920766;28;114836;-83
2023/12/24 10:16:14;;;;;;;6.95;3.15;;;4.80;73.60;;;;;;4903288;28;116659;-82
2023/12/24 10:18:49;;;;;;;4.50;2.28;;;4.80;73.60;;;;;;4926669;28;114929;-83
2023/12/24 10:21:18;;;;;;;6.60;3.38;;;4.90;73.80;;;;;;4927862;28;115065;-83
2023/12/24 10:23:46;;;;;;;5.75;2.50;;;4.80;73.70;;;;;;4911524;28;115166;-83
2023/12/24 10:26:46;;;;;;;5.55;2.58;;;4.90;73.80;;;;;;4904298;28;114671;-82
2023/12/24 10:29:20;;;;;;;5.05;2.63;;;4.90;73.70;;;;;;4911369;28;114270;-83
2023/12/24 10:31:55;;;;;;;3.88;1.73;;;4.90;73.70;;;;;;4906587;28;115240;-81
2023/12/24 10:38:58;;;;;;;4.70;2.42;;;5.00;73.70;;;;;;4599732;26;120565;-81
2023/12/24 10:41:26;;;;;;;4.18;1.83;;;5.00;73.70;;;;;;4849706;29;114830;-82
2023/12/24 10:43:59;;;;;;;3.13;1.70;;;5.00;73.70;;;;;;4850157;28;115094;-83
2023/12/24 10:46:34;;;;;;;3.45;1.80;;;5.10;73.70;;;;;;4847191;29;117308;-82
2023/12/24 10:49:01;;;;;;;3.30;1.80;;;5.10;73.90;;;;;;4850166;28;114631;-83
2023/12/24 10:51:39;;;;;;;4.75;1.85;;;5.10;73.80;;;;;;4851438;29;114558;-81
2023/12/24 10:54:07;;;;;;;3.20;1.60;;;5.20;73.80;;;;;;4854907;28;115681;-82
2023/12/24 10:57:02;;;;;;;4.35;1.88;;;5.20;73.70;;;;;;4832903;29;116057;-81
2023/12/24 11:00:12;;;;;;;3.72;1.80;;;5.20;73.80;;;;;;4850479;29;114436;-82
2023/12/24 11:02:50;;;;;;;2.88;1.60;;;5.20;73.70;;;;;;4831213;29;114573;-82
2023/12/24 11:05:54;;;;;;;3.67;1.45;;;5.20;73.70;;;;;;4831908;29;115790;-82
2023/12/24 11:08:22;;;;;;;3.87;1.80;;;5.20;73.70;;;;;;4845391;28;115000;-81
2023/12/24 11:11:07;;;;;;;5.75;2.97;;;5.20;73.70;;;;;;4847294;28;114457;-80
2023/12/24 11:13:45;;;;;;;3.35;1.75;;;5.20;73.70;;;;;;4850425;28;115130;-82
2023/12/24 11:16:40;;;;;;;4.28;1.50;;;5.20;73.70;;;;;;4848608;28;115266;-82
2023/12/24 11:19:27;;;;;;;3.60;1.83;;;5.20;73.60;;;;;;4837020;28;114752;-82
2023/12/24 11:22:27;;;;;;;2.85;1.35;;;5.20;73.50;;;;;;4838044;28;114472;-81
2023/12/24 11:25:20;;;;;;;3.10;1.45;;;5.20;73.50;;;;;;4849225;28;114705;-82
2023/12/24 11:27:52;;;;;;;2.58;1.17;;;5.20;73.50;;;;;;4828149;29;117777;-82
2023/12/24 11:30:20;;;;;;;3.58;1.45;;;5.30;73.50;;;;;;4832926;29;115289;-82
2023/12/24 11:32:48;;;;;;;2.95;1.50;;;5.30;73.50;;;;;;4831677;29;114613;-82
2023/12/24 11:35:51;;;;;;;4.15;1.60;;;5.30;73.50;;;;;;4848756;29;114502;-80
2023/12/24 11:38:39;;;;;;;3.97;1.80;;;5.30;73.50;;;;;;4847420;29;115942;-81
2023/12/24 11:41:24;;;;;;;3.47;1.60;;;5.30;73.40;;;;;;4846294;28;114601;-82
2023/12/24 11:44:00;;;;;;;6.38;3.20;;;5.30;73.40;;;;;;4844361;29;114560;-81
2023/12/24 11:46:35;;;;;;;11.02;5.55;;;5.30;73.40;;;;;;4850558;29;114601;-82
2023/12/24 11:49:11;;;;;;;10.25;5.18;;;5.40;73.40;;;;;;4847107;29;115178;-81
2023/12/24 11:51:41;;;;;;;7.55;4.07;;;5.30;73.40;;;;;;4850117;29;115305;-82
2023/12/24 11:54:09;;;;;;;6.97;3.55;;;5.40;73.40;;;;;;4822423;29;114263;-83
2023/12/24 11:56:37;;;;;;;5.72;3.15;;;5.30;73.40;;;;;;4834095;29;114339;-81
2023/12/24 11:59:07;;;;;;;7.35;3.90;;;5.30;73.40;;;;;;4843598;29;115098;-83
2023/12/24 12:01:43;;;;;;;4.85;2.53;;;5.40;73.40;;;;;;4849231;29;118493;-82
2023/12/24 12:04:11;;;;;;;4.55;2.10;;;5.40;73.40;;;;;;4848645;28;114577;-83
2023/12/24 12:06:46;;;;;;;4.47;1.98;;;5.40;73.30;;;;;;4849464;29;114722;-82
2023/12/24 12:09:19;;;;;;;4.20;1.90;;;5.50;73.40;;;;;;4850893;29;116198;-82
2023/12/24 12:12:07;;;;;;;5.00;2.30;;;5.50;73.40;;;;;;4818930;29;115271;-82
2023/12/24 12:14:42;;;;;;;5.93;2.70;;;5.50;73.30;;;;;;4831196;29;114676;-82
2023/12/24 12:17:10;;;;;;;4.57;2.35;;;5.50;73.30;;;;;;4842540;28;115019;-82
2023/12/24 12:19:39;;;;;;;4.40;2.20;;;5.50;73.20;;;;;;4859208;28;115095;-83
2023/12/24 12:22:18;;;;;;;5.40;2.50;;;5.50;73.30;;;;;;4832460;29;114628;-82
2023/12/24 12:24:45;;;;;;;5.35;2.17;;;5.50;73.30;;;;;;4849447;29;114545;-82
2023/12/24 12:27:19;;;;;;;3.88;2.08;;;5.50;73.20;;;;;;4818031;29;114699;-83
2023/12/24 12:29:46;;;;;;;4.73;2.23;;;5.50;73.30;;;;;;4816928;29;115086;-82
2023/12/24 12:32:13;;;;;;;4.45;2.30;;;5.50;73.20;;;;;;4832725;29;114665;-82
2023/12/24 12:34:41;;;;;;;3.58;1.95;;;5.50;73.10;;;;;;4847888;29;114701;-82
2023/12/24 12:37:11;;;;;;;4.10;2.13;;;5.50;73.20;;;;;;4832183;29;114765;-81
2023/12/24 12:39:44;;;;;;;3.75;1.92;;;5.50;73.20;;;;;;4847022;29;115014;-82
2023/12/24 12:42:11;;;;;;;5.45;2.38;;;5.50;73.20;;;;;;4847271;29;114860;-81
2023/12/24 12:44:38;;;;;;;3.53;1.85;;;5.60;73.10;;;;;;4848245;29;114746;-82
2023/12/24 12:48:42;;;;;;;4.72;1.80;;;5.60;73.10;;;;;;4832893;29;114720;-84
2023/12/24 12:51:10;;;;;;;4.10;2.03;;;5.60;73.00;;;;;;4828476;29;115473;-82
2023/12/24 12:53:40;;;;;;;4.95;2.40;;;5.50;73.00;;;;;;4828598;29;115117;-81
2023/12/24 12:56:08;;;;;;;3.80;2.00;;;5.50;73.10;;;;;;4800137;29;114682;-84
2023/12/24 12:58:36;;;;;;;4.03;1.92;;;5.50;73.00;;;;;;4832363;29;115040;-84
2023/12/24 13:01:04;;;;;;;4.57;2.35;;;5.60;73.10;;;;;;4830791;29;115128;-84